createdAt,value
2023-03-08T00:00:54.169Z,4.7
2023-03-08T00:02:00.325Z,4.8
2023-03-08T00:03:06.461Z,4.7
2023-03-08T00:04:12.606Z,4.7
2023-03-08T00:05:17.797Z,4.7
2023-03-08T00:06:23.908Z,4.7
2023-03-08T00:07:30.050Z,4.7
2023-03-08T00:10:48.570Z,4.7
2023-03-08T00:11:53.690Z,4.7
2023-03-08T00:12:58.809Z,4.7
2023-03-08T00:14:04.954Z,4.7
2023-03-08T00:15:11.111Z,4.7
2023-03-08T00:16:17.237Z,4.7
2023-03-08T00:17:23.387Z,4.7
2023-03-08T00:18:29.517Z,4.7
2023-03-08T00:19:35.667Z,4.7
2023-03-08T00:20:41.820Z,4.7
2023-03-08T00:21:47.967Z,4.7
2023-03-08T00:22:54.128Z,4.7
2023-03-08T00:23:59.332Z,4.7
2023-03-08T00:26:11.565Z,4.7
2023-03-08T00:27:16.728Z,4.7
2023-03-08T00:28:22.858Z,4.7
2023-03-08T00:29:29.003Z,4.7
2023-03-08T00:30:35.176Z,4.7
2023-03-08T00:31:41.292Z,4.7
2023-03-08T00:32:47.445Z,4.7
2023-03-08T00:33:53.581Z,4.6
2023-03-08T00:34:59.720Z,4.7
2023-03-08T00:37:12.013Z,4.7
2023-03-08T00:38:18.147Z,4.7
2023-03-08T00:39:24.302Z,4.6
2023-03-08T00:40:30.456Z,4.6
2023-03-08T00:42:41.786Z,4.6
2023-03-08T00:43:46.920Z,4.6
2023-03-08T00:44:52.090Z,4.6
2023-03-08T00:45:58.208Z,4.6
2023-03-08T00:47:04.375Z,4.7
2023-03-08T00:48:10.508Z,4.6
2023-03-08T00:49:16.648Z,4.6
2023-03-08T00:50:22.807Z,4.7
2023-03-08T00:51:28.969Z,4.6
2023-03-08T00:52:35.082Z,4.7
2023-03-08T00:53:40.252Z,4.7
2023-03-08T00:54:46.402Z,4.7
2023-03-08T00:55:52.541Z,4.7
2023-03-08T00:59:10.042Z,4.7
2023-03-08T01:00:15.171Z,4.6
2023-03-08T01:01:20.353Z,4.6
2023-03-08T01:02:26.468Z,4.6
2023-03-08T01:03:32.662Z,4.6
2023-03-08T01:04:38.750Z,4.6
2023-03-08T01:05:44.908Z,4.6
2023-03-08T01:06:51.152Z,4.6
2023-03-08T01:07:57.187Z,4.6
2023-03-08T01:09:03.318Z,4.6
2023-03-08T01:11:15.637Z,4.6
2023-03-08T01:12:21.753Z,4.6
2023-03-08T01:13:27.899Z,4.6
2023-03-08T01:15:40.195Z,4.6
2023-03-08T01:16:45.359Z,4.6
2023-03-08T01:17:51.486Z,4.6
2023-03-08T01:20:03.773Z,4.6
2023-03-08T01:21:09.940Z,4.6
2023-03-08T01:22:16.077Z,4.6
2023-03-08T01:23:22.209Z,4.6
2023-03-08T01:24:28.356Z,4.6
2023-03-08T01:25:34.508Z,4.6
2023-03-08T01:26:40.640Z,4.6
2023-03-08T01:27:46.772Z,4.6
2023-03-08T01:28:52.936Z,4.6
2023-03-08T01:29:59.086Z,4.6
2023-03-08T01:32:10.364Z,4.6
2023-03-08T01:33:16.514Z,4.6
2023-03-08T01:35:28.861Z,4.7
2023-03-08T01:36:34.944Z,4.7
2023-03-08T01:37:41.084Z,4.6
2023-03-08T01:38:47.233Z,4.7
2023-03-08T01:39:53.373Z,4.6
2023-03-08T01:40:59.515Z,4.6
2023-03-08T01:42:05.716Z,4.6
2023-03-08T01:43:11.799Z,4.6
2023-03-08T01:44:17.950Z,4.6
2023-03-08T01:45:23.117Z,4.6
2023-03-08T01:48:41.543Z,4.5
2023-03-08T01:49:47.764Z,4.5
2023-03-08T01:50:53.840Z,4.5
2023-03-08T01:51:59.960Z,4.5
2023-03-08T01:53:06.111Z,4.5
2023-03-08T01:54:12.266Z,4.5
2023-03-08T01:55:18.398Z,4.5
2023-03-08T01:56:24.543Z,4.5
2023-03-08T01:57:30.686Z,4.5
2023-03-08T01:58:36.831Z,4.5
2023-03-08T01:59:42.002Z,4.5
2023-03-08T02:00:48.131Z,4.5
2023-03-08T02:01:54.278Z,4.5
2023-03-08T02:03:00.417Z,4.4
2023-03-08T02:05:12.704Z,4.4
2023-03-08T02:06:18.847Z,4.4
2023-03-08T02:07:24.992Z,4.5
2023-03-08T02:08:31.125Z,4.4
2023-03-08T02:09:37.280Z,4.4
2023-03-08T02:10:43.431Z,4.4
2023-03-08T02:11:48.608Z,4.4
2023-03-08T02:12:53.742Z,4.4
2023-03-08T02:13:59.892Z,4.4
2023-03-08T02:15:06.040Z,4.4
2023-03-08T02:16:12.208Z,4.4
2023-03-08T02:17:18.328Z,4.4
2023-03-08T02:18:24.476Z,4.4
2023-03-08T02:19:30.613Z,4.4
2023-03-08T02:21:42.923Z,4.4
2023-03-08T02:22:49.168Z,4.4
2023-03-08T02:23:55.301Z,4.4
2023-03-08T02:25:01.446Z,4.4
2023-03-08T02:27:13.748Z,4.3
2023-03-08T02:28:18.902Z,4.3
2023-03-08T02:29:24.095Z,4.3
2023-03-08T02:30:30.209Z,4.3
2023-03-08T02:31:36.378Z,4.3
2023-03-08T02:32:42.620Z,4.3
2023-03-08T02:33:48.638Z,4.3
2023-03-08T02:36:00.982Z,4.3
2023-03-08T02:38:13.228Z,4.3
2023-03-08T02:39:19.364Z,4.3
2023-03-08T02:40:25.506Z,4.3
2023-03-08T02:41:31.697Z,4.3
2023-03-08T02:42:37.794Z,4.3
2023-03-08T02:43:43.035Z,4.3
2023-03-08T02:44:49.088Z,4.2
2023-03-08T02:45:55.243Z,4.2
2023-03-08T02:47:01.382Z,4.2
2023-03-08T02:48:07.533Z,4.2
2023-03-08T02:49:13.663Z,4.2
2023-03-08T02:50:19.800Z,4.1
2023-03-08T02:51:25.957Z,4.1
2023-03-08T02:52:32.103Z,4.1
2023-03-08T02:54:44.381Z,4
2023-03-08T02:55:50.523Z,4
2023-03-08T02:56:56.670Z,3.9
2023-03-08T02:58:02.809Z,3.9
2023-03-08T02:59:08.053Z,3.9
2023-03-08T03:00:14.160Z,3.8
2023-03-08T03:01:19.291Z,3.8
2023-03-08T03:02:25.550Z,3.7
2023-03-08T03:03:31.684Z,3.7
2023-03-08T03:04:37.845Z,3.7
2023-03-08T03:05:43.977Z,3.6
2023-03-08T03:06:50.189Z,3.6
2023-03-08T03:07:56.285Z,3.6
2023-03-08T03:09:02.414Z,3.5
2023-03-08T03:11:14.698Z,3.5
2023-03-08T03:13:26.984Z,3.5
2023-03-08T03:14:33.123Z,3.5
2023-03-08T03:15:38.300Z,3.5
2023-03-08T03:16:43.452Z,3.6
2023-03-08T03:17:49.600Z,3.6
2023-03-08T03:18:55.736Z,3.6
2023-03-08T03:20:01.889Z,3.7
2023-03-08T03:21:08.043Z,3.7
2023-03-08T03:22:14.172Z,3.7
2023-03-08T03:24:26.477Z,3.7
2023-03-08T03:25:32.624Z,3.7
2023-03-08T03:27:44.900Z,3.8
2023-03-08T03:28:51.051Z,3.8
2023-03-08T03:29:57.174Z,3.8
2023-03-08T03:31:03.323Z,3.9
2023-03-08T03:32:08.487Z,3.9
2023-03-08T03:33:14.625Z,3.9
2023-03-08T03:34:20.767Z,4
2023-03-08T03:35:26.968Z,4.1
2023-03-08T03:36:33.044Z,4.1
2023-03-08T03:37:39.190Z,4.1
2023-03-08T03:38:45.353Z,4.2
2023-03-08T03:39:51.488Z,4.2
2023-03-08T03:42:03.766Z,4.2
2023-03-08T03:44:16.056Z,4.2
2023-03-08T03:45:22.255Z,4.2
2023-03-08T03:46:27.374Z,4.2
2023-03-08T03:47:33.521Z,4.2
2023-03-08T03:48:39.649Z,4.2
2023-03-08T03:49:45.797Z,4.2
2023-03-08T03:50:51.938Z,4.2
2023-03-08T03:51:58.078Z,4.2
2023-03-08T03:53:04.230Z,4.2
2023-03-08T03:54:10.390Z,4.2
2023-03-08T03:55:16.519Z,4.2
2023-03-08T03:56:22.662Z,4.3
2023-03-08T03:58:34.947Z,4.3
2023-03-08T04:00:47.322Z,4.2
2023-03-08T04:01:52.387Z,4.2
2023-03-08T04:02:58.535Z,4.2
2023-03-08T04:04:04.689Z,4.2
2023-03-08T04:05:10.836Z,4.2
2023-03-08T04:06:16.970Z,4.3
2023-03-08T04:07:23.129Z,4.3
2023-03-08T04:08:29.260Z,4.3
2023-03-08T04:11:47.797Z,4.3
2023-03-08T04:12:53.836Z,4.3
2023-03-08T04:13:59.973Z,4.3
2023-03-08T04:15:06.125Z,4.3
2023-03-08T04:17:17.458Z,4.2
2023-03-08T04:18:23.564Z,4.3
2023-03-08T04:19:29.721Z,4.2
2023-03-08T04:20:35.858Z,4.3
2023-03-08T04:21:42.004Z,4.3
2023-03-08T04:22:48.142Z,4.3
2023-03-08T04:23:54.285Z,4.3
2023-03-08T04:25:00.432Z,4.4
2023-03-08T04:26:06.576Z,4.4
2023-03-08T04:27:12.712Z,4.4
2023-03-08T04:28:18.856Z,4.4
2023-03-08T04:29:25.005Z,4.4
2023-03-08T04:30:30.162Z,4.4
2023-03-08T04:31:36.302Z,4.4
2023-03-08T04:33:48.589Z,4.4
2023-03-08T04:35:59.903Z,4.5
2023-03-08T04:37:05.077Z,4.6
2023-03-08T04:38:11.207Z,4.6
2023-03-08T04:39:17.355Z,4.6
2023-03-08T04:40:23.543Z,4.6
2023-03-08T04:42:35.775Z,4.6
2023-03-08T04:43:41.931Z,4.7
2023-03-08T04:44:48.095Z,4.7
2023-03-08T04:45:54.218Z,4.7
2023-03-08T04:47:00.352Z,4.7
2023-03-08T04:48:06.526Z,4.7
2023-03-08T04:50:18.808Z,4.7
2023-03-08T04:51:23.943Z,4.7
2023-03-08T04:52:30.108Z,4.7
2023-03-08T04:53:36.233Z,4.6
2023-03-08T04:54:42.377Z,4.7
2023-03-08T04:55:48.526Z,4.7
2023-03-08T04:56:54.663Z,4.7
2023-03-08T04:58:00.814Z,4.7
2023-03-08T04:59:06.948Z,4.7
2023-03-08T05:00:13.106Z,4.7
2023-03-08T05:01:19.229Z,4.7
2023-03-08T05:02:25.387Z,4.7
2023-03-08T05:03:31.527Z,4.8
2023-03-08T05:04:37.665Z,4.8
2023-03-08T05:06:48.979Z,4.8
2023-03-08T05:07:54.146Z,4.8
2023-03-08T05:09:00.362Z,4.8
2023-03-08T05:10:06.425Z,4.8
2023-03-08T05:11:12.610Z,4.8
2023-03-08T05:12:18.719Z,4.8
2023-03-08T05:13:23.934Z,4.8
2023-03-08T05:14:29.160Z,4.8
2023-03-08T05:15:35.207Z,4.8
2023-03-08T05:16:41.429Z,4.8
2023-03-08T05:18:53.818Z,4.9
2023-03-08T05:19:59.840Z,4.9
2023-03-08T05:21:05.902Z,4.9
2023-03-08T05:23:18.201Z,4.9
2023-03-08T05:24:24.343Z,4.9
2023-03-08T05:25:30.484Z,4.9
2023-03-08T05:26:36.621Z,4.9
2023-03-08T05:27:41.796Z,4.9
2023-03-08T05:28:46.999Z,4.9
2023-03-08T05:30:59.240Z,4.9
2023-03-08T05:32:05.394Z,4.9
2023-03-08T05:33:11.535Z,4.9
2023-03-08T05:34:17.661Z,4.9
2023-03-08T05:35:23.819Z,4.9
2023-03-08T05:36:29.966Z,4.9
2023-03-08T05:37:36.098Z,4.9
2023-03-08T05:39:48.396Z,4.9
2023-03-08T05:40:54.543Z,4.9
2023-03-08T05:42:00.689Z,4.9
2023-03-08T05:43:06.822Z,4.9
2023-03-08T05:45:18.185Z,5
2023-03-08T05:46:24.268Z,5
2023-03-08T05:47:30.405Z,5
2023-03-08T05:48:36.582Z,5
2023-03-08T05:49:42.699Z,5
2023-03-08T05:50:48.830Z,5
2023-03-08T05:51:55.000Z,5
2023-03-08T05:53:01.123Z,5
2023-03-08T05:54:07.286Z,5.1
2023-03-08T05:56:19.551Z,5.1
2023-03-08T05:58:31.839Z,5.1
2023-03-08T05:59:37.001Z,5.1
2023-03-08T06:00:43.140Z,5.1
2023-03-08T06:01:49.291Z,5.2
2023-03-08T06:02:55.433Z,5.2
2023-03-08T06:04:01.576Z,5.2
2023-03-08T06:05:07.710Z,5.2
2023-03-08T06:06:13.862Z,5.2
2023-03-08T06:07:19.999Z,5.2
2023-03-08T06:08:26.140Z,5.2
2023-03-08T06:09:32.278Z,5.2
2023-03-08T06:10:38.433Z,5.2
2023-03-08T06:12:50.713Z,5.2
2023-03-08T06:13:55.897Z,5.2
2023-03-08T06:15:02.011Z,5.2
2023-03-08T06:16:08.172Z,5.2
2023-03-08T06:17:14.310Z,5.2
2023-03-08T06:18:20.445Z,5.2
2023-03-08T06:19:26.594Z,5.2
2023-03-08T06:20:32.735Z,5.2
2023-03-08T06:21:37.905Z,5.2
2023-03-08T06:22:43.080Z,5.2
2023-03-08T06:23:49.209Z,5.2
2023-03-08T06:24:55.366Z,5.2
2023-03-08T06:26:01.506Z,5.2
2023-03-08T06:27:07.633Z,5.2
2023-03-08T06:29:20.014Z,5.2
2023-03-08T06:30:26.071Z,5.2
2023-03-08T06:31:32.215Z,5.2
2023-03-08T06:32:38.351Z,5.2
2023-03-08T06:33:44.503Z,5.2
2023-03-08T06:34:50.657Z,5.3
2023-03-08T06:35:56.810Z,5.3
2023-03-08T06:37:01.957Z,5.3
2023-03-08T06:38:08.108Z,5.3
2023-03-08T06:39:14.296Z,5.3
2023-03-08T06:40:20.399Z,5.3
2023-03-08T06:41:26.526Z,5.4
2023-03-08T06:42:32.667Z,5.4
2023-03-08T06:43:38.818Z,5.5
2023-03-08T06:45:51.101Z,5.5
2023-03-08T06:46:57.251Z,5.5
2023-03-08T06:48:03.388Z,5.6
2023-03-08T06:49:09.540Z,5.6
2023-03-08T06:50:15.683Z,5.6
2023-03-08T06:51:20.848Z,5.7
2023-03-08T06:52:26.014Z,5.7
2023-03-08T06:53:31.188Z,5.7
2023-03-08T06:54:37.328Z,5.7
2023-03-08T06:56:49.594Z,5.7
2023-03-08T06:57:55.740Z,5.7
2023-03-08T06:59:01.991Z,5.7
2023-03-08T07:00:08.092Z,5.7
2023-03-08T07:02:20.367Z,5.7
2023-03-08T07:03:26.557Z,5.7
2023-03-08T07:04:32.676Z,5.7
2023-03-08T07:05:38.832Z,5.7
2023-03-08T07:06:44.161Z,5.7
2023-03-08T07:07:49.154Z,5.7
2023-03-08T07:08:55.279Z,5.7
2023-03-08T07:11:07.560Z,5.7
2023-03-08T07:12:13.708Z,5.7
2023-03-08T07:13:19.842Z,5.8
2023-03-08T07:14:26.296Z,5.8
2023-03-08T07:15:32.225Z,5.8
2023-03-08T07:16:38.275Z,5.9
2023-03-08T07:18:50.564Z,5.9
2023-03-08T07:19:56.697Z,5.9
2023-03-08T07:21:02.870Z,5.9
2023-03-08T07:22:08.055Z,6
2023-03-08T07:23:13.195Z,6
2023-03-08T07:24:19.334Z,5.9
2023-03-08T07:25:25.469Z,6
2023-03-08T07:26:31.618Z,6
2023-03-08T07:27:37.912Z,6
2023-03-08T07:28:43.902Z,6
2023-03-08T07:29:50.047Z,6
2023-03-08T07:30:56.242Z,6
2023-03-08T07:32:02.332Z,6.1
2023-03-08T07:33:08.508Z,6.1
2023-03-08T07:35:19.792Z,6.3
2023-03-08T07:36:24.954Z,6.3
2023-03-08T07:37:31.102Z,6.3
2023-03-08T07:38:37.239Z,6.3
2023-03-08T07:40:49.521Z,6.2
2023-03-08T07:43:01.806Z,6.1
2023-03-08T07:44:08.008Z,6.1
2023-03-08T07:45:14.114Z,6
2023-03-08T07:46:20.237Z,6.1
2023-03-08T07:47:26.379Z,6.1
2023-03-08T07:48:32.565Z,6.1
2023-03-08T07:49:38.699Z,6.2
2023-03-08T07:51:50.098Z,6.3
2023-03-08T07:52:56.302Z,6.3
2023-03-08T07:54:02.267Z,6.3
2023-03-08T07:55:08.558Z,6.3
2023-03-08T07:57:20.820Z,6.4
2023-03-08T07:58:27.032Z,6.4
2023-03-08T07:59:33.131Z,6.4
2023-03-08T08:00:39.278Z,6.5
2023-03-08T08:01:45.352Z,6.5
2023-03-08T08:02:51.597Z,6.5
2023-03-08T08:03:57.562Z,6.5
2023-03-08T08:05:02.779Z,6.5
2023-03-08T08:06:08.916Z,6.5
2023-03-08T08:08:21.209Z,6.5
2023-03-08T08:09:27.410Z,6.5
2023-03-08T08:10:33.590Z,6.4
2023-03-08T08:11:39.625Z,6.4
2023-03-08T08:12:45.716Z,6.3
2023-03-08T08:13:52.040Z,6.3
2023-03-08T08:14:58.026Z,6.3
2023-03-08T08:16:04.160Z,6.4
2023-03-08T08:17:10.289Z,6.4
2023-03-08T08:18:15.459Z,6.4
2023-03-08T08:19:21.598Z,6.5
2023-03-08T08:20:26.826Z,6.4
2023-03-08T08:21:31.921Z,6.5
2023-03-08T08:22:38.122Z,6.5
2023-03-08T08:25:56.535Z,6.5
2023-03-08T08:27:02.718Z,6.5
2023-03-08T08:28:08.916Z,6.6
2023-03-08T08:29:15.037Z,6.6
2023-03-08T08:30:21.074Z,6.5
2023-03-08T08:31:27.282Z,6.5
2023-03-08T08:32:33.360Z,6.5
2023-03-08T08:33:39.503Z,6.5
2023-03-08T08:34:44.737Z,6.5
2023-03-08T08:35:49.831Z,6.5
2023-03-08T08:36:56.034Z,6.5
2023-03-08T08:38:02.190Z,6.6
2023-03-08T08:39:08.280Z,6.6
2023-03-08T08:41:20.599Z,6.7
2023-03-08T08:42:26.696Z,6.7
2023-03-08T08:43:32.835Z,6.7
2023-03-08T08:44:38.985Z,6.7
2023-03-08T08:45:45.206Z,6.7
2023-03-08T08:46:51.258Z,6.8
2023-03-08T08:47:57.399Z,6.8
2023-03-08T08:49:03.548Z,6.8
2023-03-08T08:50:08.712Z,6.8
2023-03-08T08:51:14.918Z,6.7
2023-03-08T08:52:20.999Z,6.7
2023-03-08T08:53:27.183Z,6.7
2023-03-08T08:54:33.373Z,6.7
2023-03-08T08:55:39.435Z,6.7
2023-03-08T08:58:57.930Z,6.8
2023-03-08T09:00:04.023Z,6.8
2023-03-08T09:02:16.388Z,6.8
2023-03-08T09:03:22.519Z,6.8
2023-03-08T09:04:27.716Z,6.8
2023-03-08T09:05:33.792Z,6.8
2023-03-08T09:06:40.144Z,6.9
2023-03-08T09:07:46.149Z,6.9
2023-03-08T09:08:52.170Z,6.9
2023-03-08T09:09:58.311Z,6.9
2023-03-08T09:11:04.541Z,6.9
2023-03-08T09:12:10.779Z,6.9
2023-03-08T09:14:22.919Z,6.9
2023-03-08T09:15:29.087Z,7
2023-03-08T09:16:35.250Z,7
2023-03-08T09:17:41.352Z,7
2023-03-08T09:18:46.499Z,6.9
2023-03-08T09:19:52.718Z,7
2023-03-08T09:20:58.830Z,7
2023-03-08T09:22:04.895Z,7
2023-03-08T09:23:11.085Z,7
2023-03-08T09:24:17.210Z,7
2023-03-08T09:25:23.334Z,7
2023-03-08T09:26:28.499Z,7
2023-03-08T09:27:33.720Z,7
2023-03-08T09:28:39.805Z,7
2023-03-08T09:30:52.106Z,7
2023-03-08T09:31:58.236Z,7.1
2023-03-08T09:33:04.381Z,7.1
2023-03-08T09:34:10.529Z,7.1
2023-03-08T09:35:16.866Z,7.2
2023-03-08T09:36:22.808Z,7.2
2023-03-08T09:37:29.013Z,7.2
2023-03-08T09:38:35.099Z,7.3
2023-03-08T09:39:41.234Z,7.3
2023-03-08T09:40:47.445Z,7.3
2023-03-08T09:41:52.625Z,7.3
2023-03-08T09:42:58.749Z,7.3
2023-03-08T09:44:04.867Z,7.3
2023-03-08T09:45:11.061Z,7.3
2023-03-08T09:47:23.270Z,7.3
2023-03-08T09:48:28.593Z,7.3
2023-03-08T09:49:33.634Z,7.3
2023-03-08T09:50:39.914Z,7.4
2023-03-08T09:52:52.236Z,7.3
2023-03-08T09:53:58.233Z,7.3
2023-03-08T09:55:04.439Z,7.2
2023-03-08T09:56:10.477Z,7.2
2023-03-08T09:57:16.624Z,7.1
2023-03-08T09:58:22.864Z,7.1
2023-03-08T09:59:28.957Z,7.1
2023-03-08T10:01:41.224Z,7.1
2023-03-08T10:04:59.600Z,7.2
2023-03-08T10:06:04.812Z,7.1
2023-03-08T10:07:10.906Z,7.1
2023-03-08T10:08:17.046Z,7.1
2023-03-08T10:09:23.172Z,7.1
2023-03-08T10:11:35.577Z,7.2
2023-03-08T10:12:41.593Z,7.2
2023-03-08T10:13:47.897Z,7.2
2023-03-08T10:14:53.990Z,7.2
2023-03-08T10:16:00.031Z,7.2
2023-03-08T10:17:06.179Z,7.2
2023-03-08T10:21:30.748Z,7.2
2023-03-08T10:22:36.951Z,7.2
2023-03-08T10:23:42.089Z,7.2
2023-03-08T10:24:48.211Z,7.2
2023-03-08T10:25:54.419Z,7.2
2023-03-08T10:28:06.663Z,7.2
2023-03-08T10:29:12.811Z,7.2
2023-03-08T10:31:25.061Z,7.3
2023-03-08T10:32:31.197Z,7.3
2023-03-08T10:34:43.536Z,7.2
2023-03-08T10:36:55.968Z,7.3
2023-03-08T10:38:01.039Z,7.3
2023-03-08T10:39:07.153Z,7.3
2023-03-08T10:40:13.264Z,7.3
2023-03-08T10:41:19.416Z,7.4
2023-03-08T10:42:25.520Z,7.4
2023-03-08T10:43:31.639Z,7.6
2023-03-08T10:44:37.812Z,7.7
2023-03-08T10:45:44.048Z,7.8
2023-03-08T10:47:56.237Z,8
2023-03-08T10:49:02.385Z,8.1
2023-03-08T10:50:08.516Z,8.1
2023-03-08T10:51:14.681Z,8.1
2023-03-08T10:53:27.045Z,8
2023-03-08T10:54:32.228Z,8
2023-03-08T10:55:38.265Z,8.1
2023-03-08T10:56:44.383Z,8.1
2023-03-08T10:57:50.581Z,8.1
2023-03-08T10:58:56.680Z,8.1
2023-03-08T11:00:02.819Z,8.1
2023-03-08T11:01:08.971Z,8.1
2023-03-08T11:02:15.124Z,8.1
2023-03-08T11:03:21.241Z,8.2
2023-03-08T11:04:27.424Z,8.2
2023-03-08T11:05:33.551Z,8.3
2023-03-08T11:06:39.719Z,8.4
2023-03-08T11:07:45.819Z,8.4
2023-03-08T11:09:57.192Z,8.4
2023-03-08T11:11:03.300Z,8.4
2023-03-08T11:12:09.408Z,8.4
2023-03-08T11:13:15.562Z,8.4
2023-03-08T11:15:27.971Z,8.4
2023-03-08T11:16:34.103Z,8.4
2023-03-08T11:17:40.230Z,8.4
2023-03-08T11:18:46.450Z,8.4
2023-03-08T11:19:52.561Z,8.4
2023-03-08T11:20:58.550Z,8.4
2023-03-08T11:22:04.714Z,8.4
2023-03-08T11:23:09.975Z,8.4
2023-03-08T11:24:16.061Z,8.4
2023-03-08T11:26:28.370Z,8.4
2023-03-08T11:27:34.444Z,8.5
2023-03-08T11:28:40.683Z,8.5
2023-03-08T11:29:46.709Z,8.6
2023-03-08T11:30:52.871Z,8.6
2023-03-08T11:31:58.998Z,8.6
2023-03-08T11:33:05.183Z,8.6
2023-03-08T11:34:11.282Z,8.7
2023-03-08T11:35:17.459Z,8.7
2023-03-08T11:36:23.633Z,8.7
2023-03-08T11:37:28.733Z,8.7
2023-03-08T11:38:33.922Z,8.8
2023-03-08T11:39:40.185Z,8.8
2023-03-08T11:40:46.364Z,8.8
2023-03-08T11:42:58.635Z,8.8
2023-03-08T11:44:04.741Z,8.8
2023-03-08T11:45:10.909Z,8.9
2023-03-08T11:46:17.051Z,8.9
2023-03-08T11:47:23.176Z,8.8
2023-03-08T11:48:29.331Z,8.8
2023-03-08T11:49:35.462Z,8.8
2023-03-08T11:50:41.594Z,8.8
2023-03-08T11:51:47.816Z,8.9
2023-03-08T11:52:53.895Z,8.9
2023-03-08T11:54:00.048Z,9
2023-03-08T11:55:05.191Z,9
2023-03-08T11:56:11.329Z,9
2023-03-08T11:57:17.471Z,9
2023-03-08T11:59:29.762Z,9.1
2023-03-08T12:00:34.936Z,9.1
2023-03-08T12:01:40.102Z,9.2
2023-03-08T12:02:46.245Z,9.3
2023-03-08T12:03:52.384Z,9.3
2023-03-08T12:04:58.532Z,9.3
2023-03-08T12:06:04.720Z,9.3
2023-03-08T12:07:10.845Z,9.3
2023-03-08T12:08:17.052Z,9.2
2023-03-08T12:09:23.296Z,9.2
2023-03-08T12:10:29.263Z,9.2
2023-03-08T12:11:35.390Z,9.2
2023-03-08T12:12:40.589Z,9.3
2023-03-08T12:13:45.744Z,9.3
2023-03-08T12:15:58.024Z,9.4
2023-03-08T12:17:04.144Z,9.4
2023-03-08T12:18:10.293Z,9.4
2023-03-08T12:19:16.439Z,9.4
2023-03-08T12:21:28.731Z,9.4
2023-03-08T12:22:34.859Z,9.4
2023-03-08T12:23:41.058Z,9.4
2023-03-08T12:24:47.143Z,9.4
2023-03-08T12:25:53.299Z,9.4
2023-03-08T12:26:58.469Z,9.4
2023-03-08T12:28:03.622Z,9.5
2023-03-08T12:29:09.781Z,9.5
2023-03-08T12:30:15.916Z,9.6
2023-03-08T12:32:28.257Z,9.6
2023-03-08T12:33:34.337Z,9.6
2023-03-08T12:34:40.497Z,9.7
2023-03-08T12:35:46.626Z,9.7
2023-03-08T12:36:52.878Z,9.7
2023-03-08T12:37:59.133Z,9.8
2023-03-08T12:39:05.227Z,9.8
2023-03-08T12:40:11.378Z,9.9
2023-03-08T12:41:17.431Z,9.9
2023-03-08T12:42:22.506Z,9.9
2023-03-08T12:43:28.665Z,10
2023-03-08T12:44:34.791Z,10
2023-03-08T12:52:18.093Z,10.4
2023-03-08T12:53:23.998Z,10.5
2023-03-08T12:54:30.127Z,10.5
2023-03-08T12:57:48.590Z,10.5
2023-03-08T12:58:53.688Z,10.6
2023-03-08T12:59:59.814Z,10.6
2023-03-08T13:01:05.954Z,10.6
2023-03-08T13:02:12.110Z,10.6
2023-03-08T13:05:30.530Z,10.5
2023-03-08T13:06:36.676Z,10.6
2023-03-08T13:07:42.834Z,10.6
2023-03-08T13:08:48.969Z,10.6
2023-03-08T13:09:55.106Z,10.6
2023-03-08T13:11:01.279Z,10.7
2023-03-08T13:12:07.400Z,10.7
2023-03-08T13:13:12.553Z,10.8
2023-03-08T13:14:18.691Z,10.8
2023-03-08T13:15:24.936Z,10.8
2023-03-08T13:16:30.996Z,10.9
2023-03-08T13:17:37.126Z,10.9
2023-03-08T13:18:43.271Z,10.9
2023-03-08T13:22:01.699Z,11
2023-03-08T13:23:08.012Z,11
2023-03-08T13:24:13.993Z,11
2023-03-08T13:25:20.163Z,11
2023-03-08T13:26:26.338Z,11
2023-03-08T13:27:31.505Z,11
2023-03-08T13:28:37.577Z,11.1
2023-03-08T13:29:43.788Z,11
2023-03-08T13:30:49.879Z,11
2023-03-08T13:31:56.030Z,11
2023-03-08T13:33:02.154Z,11
2023-03-08T13:35:14.430Z,11
2023-03-08T13:36:20.585Z,11
2023-03-08T13:38:32.873Z,11
2023-03-08T13:39:39.045Z,11
2023-03-08T13:40:45.148Z,11
2023-03-08T13:41:50.351Z,11
2023-03-08T13:42:56.449Z,11.1
2023-03-08T13:44:02.599Z,11.2
2023-03-08T13:45:08.754Z,11.2
2023-03-08T13:46:14.885Z,11.2
2023-03-08T13:47:21.026Z,11.1
2023-03-08T13:48:27.168Z,11.1
2023-03-08T13:49:33.352Z,11.1
2023-03-08T13:50:39.536Z,11.2
2023-03-08T13:51:45.598Z,11.2
2023-03-08T13:55:04.138Z,11.3
2023-03-08T13:56:09.217Z,11.3
2023-03-08T13:57:15.326Z,11.2
2023-03-08T13:58:21.526Z,11.2
2023-03-08T13:59:27.656Z,11.1
2023-03-08T14:00:33.865Z,11.1
2023-03-08T14:01:39.910Z,11.1
2023-03-08T14:02:46.044Z,11
2023-03-08T14:03:52.288Z,11
2023-03-08T14:04:58.328Z,11.1
2023-03-08T14:06:04.529Z,11.1
2023-03-08T14:07:10.619Z,11.1
2023-03-08T14:08:16.769Z,11.1
2023-03-08T14:09:22.918Z,11.1
2023-03-08T14:11:34.224Z,11
2023-03-08T14:12:40.352Z,11
2023-03-08T14:13:46.490Z,11
2023-03-08T14:15:58.795Z,10.9
2023-03-08T14:17:04.921Z,10.9
2023-03-08T14:18:11.076Z,10.9
2023-03-08T14:19:17.229Z,10.9
2023-03-08T14:20:23.390Z,10.9
2023-03-08T14:21:29.500Z,10.9
2023-03-08T14:23:41.850Z,10.9
2023-03-08T14:24:46.944Z,10.9
2023-03-08T14:25:53.078Z,11
2023-03-08T14:28:05.365Z,11.1
2023-03-08T14:29:11.520Z,11.2
2023-03-08T14:31:23.803Z,11.2
2023-03-08T14:32:29.949Z,11.2
2023-03-08T14:33:36.094Z,11.2
2023-03-08T14:34:42.232Z,11.2
2023-03-08T14:38:00.666Z,11.2
2023-03-08T14:39:05.826Z,11.3
2023-03-08T14:40:11.965Z,11.3
2023-03-08T14:41:18.117Z,11.4
2023-03-08T14:42:24.255Z,11.4
2023-03-08T14:44:36.541Z,11.4
2023-03-08T14:45:42.725Z,11.4
2023-03-08T14:46:48.817Z,11.3
2023-03-08T14:47:54.964Z,11.3
2023-03-08T14:49:01.100Z,11.3
2023-03-08T14:50:07.252Z,11.2
2023-03-08T14:53:25.679Z,11.1
2023-03-08T14:54:30.983Z,11
2023-03-08T14:55:36.970Z,11
2023-03-08T14:56:43.122Z,11
2023-03-08T14:57:49.335Z,11
2023-03-08T14:58:55.505Z,10.9
2023-03-08T15:02:13.835Z,10.9
2023-03-08T15:03:19.979Z,10.9
2023-03-08T15:05:32.270Z,10.8
2023-03-08T15:06:38.409Z,10.7
2023-03-08T15:07:44.573Z,10.6
2023-03-08T15:09:55.944Z,10.5
2023-03-08T15:11:02.064Z,10.5
2023-03-08T15:12:08.161Z,10.5
2023-03-08T15:13:14.306Z,10.4
2023-03-08T15:14:20.426Z,10.4
2023-03-08T15:15:26.649Z,10.4
2023-03-08T15:17:38.859Z,10.4
2023-03-08T15:18:45.001Z,10.3
2023-03-08T15:19:51.145Z,10.3
2023-03-08T15:20:57.285Z,10.3
2023-03-08T15:22:03.442Z,10.3
2023-03-08T15:23:08.593Z,10.2
2023-03-08T15:24:14.739Z,10.2
2023-03-08T15:25:20.879Z,10.3
2023-03-08T15:26:27.136Z,10.3
2023-03-08T15:27:33.162Z,10.3
2023-03-08T15:28:39.296Z,10.3
2023-03-08T15:29:45.515Z,10.3
2023-03-08T15:30:51.602Z,10.2
2023-03-08T15:31:57.747Z,10.2
2023-03-08T15:34:09.052Z,10.2
2023-03-08T15:35:14.206Z,10.2
2023-03-08T15:36:20.351Z,10.2
2023-03-08T15:37:26.499Z,10.2
2023-03-08T15:39:38.777Z,10.2
2023-03-08T15:40:45.000Z,10.1
2023-03-08T15:41:50.103Z,10.1
2023-03-08T15:42:56.228Z,10.1
2023-03-08T15:44:02.379Z,10
2023-03-08T15:45:08.521Z,10
2023-03-08T15:46:14.660Z,10
2023-03-08T15:47:20.797Z,10
2023-03-08T15:48:26.981Z,10
2023-03-08T15:51:45.494Z,10
2023-03-08T15:52:51.629Z,9.9
2023-03-08T15:55:03.920Z,9.9
2023-03-08T15:56:09.146Z,9.8
2023-03-08T15:57:15.305Z,9.7
2023-03-08T15:58:21.422Z,9.7
2023-03-08T15:59:27.609Z,9.6
2023-03-08T16:00:33.645Z,9.6
2023-03-08T16:01:39.797Z,9.5
2023-03-08T16:02:45.938Z,9.5
2023-03-08T16:04:58.223Z,9.4
2023-03-08T16:07:10.533Z,9.3
2023-03-08T16:08:16.658Z,9.3
2023-03-08T16:09:22.798Z,9.2
2023-03-08T16:10:28.049Z,9.2
2023-03-08T16:11:34.104Z,9.2
2023-03-08T16:12:40.250Z,9.1
2023-03-08T16:14:52.536Z,9.1
2023-03-08T16:15:58.672Z,9.1
2023-03-08T16:19:17.114Z,9
2023-03-08T16:20:23.250Z,9
2023-03-08T16:21:29.418Z,9
2023-03-08T16:24:47.949Z,9
2023-03-08T16:26:59.128Z,9
2023-03-08T16:28:05.343Z,8.9
2023-03-08T16:29:11.445Z,8.9
2023-03-08T16:30:17.572Z,8.9
2023-03-08T16:31:23.758Z,8.9
2023-03-08T16:32:29.846Z,8.9
2023-03-08T16:33:36.013Z,8.9
2023-03-08T16:34:42.135Z,8.9
2023-03-08T16:35:48.285Z,8.9
2023-03-08T16:36:54.458Z,8.9
2023-03-08T16:40:12.882Z,8.8
2023-03-08T16:41:18.048Z,8.8
2023-03-08T16:42:24.340Z,8.8
2023-03-08T16:44:36.492Z,8.8
2023-03-08T16:45:42.644Z,8.8
2023-03-08T16:46:48.808Z,8.8
2023-03-08T16:49:01.095Z,8.8
2023-03-08T16:51:13.334Z,8.8
2023-03-08T16:52:19.514Z,8.8
2023-03-08T16:54:31.871Z,8.8
2023-03-08T16:56:44.147Z,8.8
2023-03-08T16:58:55.318Z,8.8
2023-03-08T17:00:01.495Z,8.8
2023-03-08T17:01:07.593Z,8.8
2023-03-08T17:02:13.734Z,8.8
2023-03-08T17:04:26.028Z,8.8
2023-03-08T17:05:32.164Z,8.8
2023-03-08T17:06:38.405Z,8.8
2023-03-08T17:09:56.757Z,8.8
2023-03-08T17:11:02.892Z,8.8
2023-03-08T17:15:26.549Z,8.8
2023-03-08T17:16:32.633Z,8.8
2023-03-08T17:17:38.766Z,8.8
2023-03-08T17:18:44.926Z,8.8
2023-03-08T17:20:57.201Z,8.8
2023-03-08T17:22:03.335Z,8.7
2023-03-08T17:25:21.773Z,8.7
2023-03-08T17:26:27.002Z,8.7
2023-03-08T17:30:51.498Z,8.7
2023-03-08T17:35:16.085Z,8.8
2023-03-08T17:38:34.513Z,8.8
2023-03-08T17:39:40.663Z,8.8
2023-03-08T17:41:51.948Z,8.8
2023-03-08T17:46:16.536Z,8.8
2023-03-08T17:48:28.853Z,8.9
2023-03-08T17:49:35.091Z,8.8
2023-03-08T17:50:41.154Z,8.9
2023-03-08T17:51:47.286Z,8.9
2023-03-08T17:53:59.539Z,8.9
2023-03-08T17:56:10.851Z,8.9
2023-03-08T17:57:16.977Z,8.9
2023-03-08T17:59:29.275Z,8.9
2023-03-08T18:02:47.696Z,9
2023-03-08T18:03:53.832Z,9
2023-03-08T18:04:59.982Z,9
2023-03-08T18:06:06.109Z,9
2023-03-08T18:08:18.456Z,9
2023-03-08T18:09:23.573Z,9
2023-03-08T18:11:35.855Z,9
2023-03-08T18:13:48.140Z,9.1
2023-03-08T18:14:54.283Z,9.1
2023-03-08T18:20:25.006Z,9.1
2023-03-08T18:21:31.145Z,9.1